Hartfield, United Kingdom
Current Conditions -  °F | °C
As of 11:50 AM on Thursday 30 Oct 2014 (Local Time) from EGKK Reporting Station
Broken Clouds Broken Clouds  
Wind Chill: 18°   Ceiling: 1400
Heat Index: 18°   Visibility: 6mi
Dew Point: 15°   Wind: 8mph
Humidity: 83%   Direction: 210°SSW
Pressure: 30.09"   Gusts: NA
Location:  51.1°N, 0.11°E
Report Text: EGKK 301150Z 21007KT 9000 BKN014 18/15 Q1019
Loading
Personal Weather Stations






























Interactive Weather Map
Tropical Storm Tracking
New forecast layout! Learn more

10-Day Weather Forecast

Advertisements
Track Severe Weather on mobile